Antares — DFJQ — position and weather

sailwx.info

Track history (hours):
 
Tides and Currents Weather Stations Pressure Air Temp Water Temp Dewpoint Dewpoint Depression Visibility Wind Speed Wind Dir Waves Ship Positions

Antares

Last reported at 2015-Mar-05 15:33 UTC. Time now 2015-Mar-05 16:10 UTC.
Position N 53°56' E 007°41'.

Length 79 m; draft 5.1 m.

Type: Ship. MMSI: 218777000.

Date/timePositionNaut miles runAvg speedWind from/ knotsBaromVisibWave heightAir tempDewpointWater temp
2015-Mar-05 15:33N 53°56' E 007°41'10 9.6
2015-Mar-05 14:33N 53°54' E 007°26'10 9.6
2015-Mar-05 13:33N 53°51' E 007°10'10 9.9
2015-Mar-05 12:33N 53°49' E 006°53'1410.2
2015-Mar-05 11:12N 53°46' E 006°31'1210.8
2015-Mar-05 10:04N 53°42' E 006°11'611.3
2015-Mar-05 09:33N 53°40' E 006°02'1111.4
2015-Mar-05 08:33N 53°37' E 005°43'1212.0
2015-Mar-05 07:33N 53°33' E 005°24'1211.9
2015-Mar-05 06:33N 53°29' E 005°06'1212.2
2015-Mar-05 05:33N 53°25' E 004°47'1211.4
2015-Mar-05 04:30N 53°15' E 004°35'1011.0
2015-Mar-05 03:33N 53°06' E 004°26'66 8.1
2015-Mar-04 19:27N 52°10' E 003°29'8 5.9
2015-Mar-04 18:06N 52°02' E 003°24'4 6.5
2015-Mar-04 17:33N 51°59' E 003°24'8 7.4
2015-Mar-04 16:30N 51°51' E 003°21'8 8.5
2015-Mar-04 15:32N 51°44' E 003°17'9 8.9
2015-Mar-04 14:33N 51°36' E 003°23'10 9.9
2015-Mar-04 13:34N 51°27' E 003°31'8 7.8
2015-Mar-04 12:33N 51°24' E 003°42'7 6.9
2015-Mar-04 11:33N 51°21' E 003°53'7 6.9
2015-Mar-04 10:34N 51°26' E 004°01'6 6.1
2015-Mar-04 09:34N 51°23' E 004°09'7 6.8
2015-Mar-04 08:33N 51°18' E 004°17'2 2.3
2015-Mar-04 07:34N 51°17' E 004°20'1 0.8
2015-Mar-04 06:32N 51°17' E 004°20'0 0.0
2015-Mar-04 05:32N 51°17' E 004°20'0 0.0
2015-Mar-04 04:32N 51°17' E 004°20'0 0.0
2015-Mar-04 03:32N 51°17' E 004°20'0 0.0
2015-Mar-04 02:32N 51°17' E 004°20'0 0.0
2015-Mar-04 01:32N 51°17' E 004°20'0 0.0
2015-Mar-04 00:32N 51°17' E 004°20'0 0.0
2015-Mar-03 23:32N 51°17' E 004°20'0 0.0
2015-Mar-03 22:29N 51°17' E 004°20'0 0.0
2015-Mar-03 21:29N 51°17' E 004°20'0 0.0
2015-Mar-03 20:32N 51°17' E 004°20'0 0.0
2015-Mar-03 19:32N 51°17' E 004°20'0 0.0
2015-Mar-03 18:33N 51°17' E 004°20'1 0.8
2015-Mar-03 17:34N 51°17' E 004°20'1 0.9
2015-Mar-03 16:33N 51°17' E 004°19'3 3.3
2015-Mar-03 15:34N 51°20' E 004°16'7 6.7
2015-Mar-03 14:34N 51°22' E 004°06'6 6.5
2015-Mar-03 13:34N 51°22' E 003°56'10 9.7
2015-Mar-03 12:34N 51°25' E 003°41'4 3.5
2015-Mar-03 11:33N 51°25' E 003°35'1 0.8
2015-Mar-03 10:33N 51°25' E 003°36'10 9.5
2015-Mar-03 09:33N 51°24' E 003°21'1211.6
2015-Mar-03 08:34N 51°22' E 003°03'1110.5
2015-Mar-03 07:34N 51°22' E 002°46'10 9.7
2015-Mar-03 06:30N 51°22' E 002°30'9 9.2
2015-Mar-03 05:33N 51°17' E 002°18'9 9.4
2015-Mar-03 04:34N 51°13' E 002°05'1010.1
2015-Mar-03 03:34N 51°08' E 001°50'1010.2
2015-Mar-03 02:34N 51°01' E 001°39'1010.0
2015-Mar-03 01:34N 50°53' E 001°29'  
2015-Feb-28 08:13N 53°33' W 003°29'710.9
2015-Feb-28 07:34N 53°32' W 003°18'8 8.4
2015-Feb-28 06:34N 53°29' W 003°05'6 6.3
2015-Feb-28 05:34N 53°23' W 003°01'0 0.0
2015-Feb-28 04:31N 53°23' W 003°01'0 0.0
2015-Feb-28 03:31N 53°23' W 003°01'0 0.0
2015-Feb-28 02:31N 53°23' W 003°01'0 0.0
2015-Feb-28 01:31N 53°23' W 003°01'0 0.0
2015-Feb-28 00:31N 53°23' W 003°01'0 0.0
2015-Feb-27 23:31N 53°23' W 003°01'0 0.0
2015-Feb-27 22:13N 53°23' W 003°01'0 0.0
2015-Feb-27 21:31N 53°23' W 003°01'0 0.0
2015-Feb-27 20:31N 53°23' W 003°01'0 0.0
2015-Feb-27 19:25N 53°23' W 003°01'0 0.0
2015-Feb-27 18:31N 53°23' W 003°01'0 0.0
2015-Feb-27 17:31N 53°23' W 003°01'0 0.4
2015-Feb-27 16:30N 53°23' W 003°00'7 7.9
2015-Feb-27 15:33N 53°30' W 003°06'9 8.6
2015-Feb-27 14:33N 53°31' W 003°20'3 3.0
2015-Feb-27 13:25N 53°28' W 003°22'0 0.0
2015-Feb-27 12:25N 53°28' W 003°22'0 0.0
2015-Feb-27 11:25N 53°28' W 003°22'1 0.9
2015-Feb-27 10:34N 53°29' W 003°23'205 4.0
2015-Feb-25 07:04N 50°19' W 001°21'55 9.4
2015-Feb-25 01:11N 50°33' E 000°03'4 6.4
2015-Feb-25 00:33N 50°34' E 000°09'7 7.3
2015-Feb-24 23:33N 50°36' E 000°20'8 8.2
2015-Feb-24 22:33N 50°38' E 000°32'10 9.5
2015-Feb-24 21:33N 50°43' E 000°45'10 9.8
2015-Feb-24 20:33N 50°49' E 000°58'1110.4
2015-Feb-24 19:31N 50°56' E 001°11'8 8.7
2015-Feb-24 18:34N 51°01' E 001°21'8 7.8
2015-Feb-24 17:33N 51°06' E 001°31'7 6.5
2015-Feb-24 16:33N 51°11' E 001°39'6 6.0
2015-Feb-24 15:33N 51°15' E 001°45'8 7.8
2015-Feb-24 14:33N 51°22' E 001°51'1010.2
2015-Feb-24 13:33N 51°30' E 001°60'1111.3
2015-Feb-24 12:33N 51°39' E 002°12'1110.8
2015-Feb-24 11:33N 51°47' E 002°24'  
Track history (hours):
 
Tides and Currents Weather Stations Pressure Air Temp Water Temp Dewpoint Dewpoint Depression Visibility Wind Speed Wind Dir Waves Ship Positions

Antares

Last reported at 2015-Mar-05 15:33 UTC. Time now 2015-Mar-05 16:10 UTC.
Position N 53°56' E 007°41'.

Length 79 m; draft 5.1 m.

Type: Ship. MMSI: 218777000.

Date/timePositionNaut miles runAvg speedWind from/ knotsBaromVisibWave heightAir tempDewpointWater temp
2015-Mar-05 15:33N 53°56' E 007°41'10 9.6
2015-Mar-05 14:33N 53°54' E 007°26'10 9.6
2015-Mar-05 13:33N 53°51' E 007°10'10 9.9
2015-Mar-05 12:33N 53°49' E 006°53'1410.2
2015-Mar-05 11:12N 53°46' E 006°31'1210.8
2015-Mar-05 10:04N 53°42' E 006°11'611.3
2015-Mar-05 09:33N 53°40' E 006°02'1111.4
2015-Mar-05 08:33N 53°37' E 005°43'1212.0
2015-Mar-05 07:33N 53°33' E 005°24'1211.9
2015-Mar-05 06:33N 53°29' E 005°06'1212.2
2015-Mar-05 05:33N 53°25' E 004°47'1211.4
2015-Mar-05 04:30N 53°15' E 004°35'1011.0
2015-Mar-05 03:33N 53°06' E 004°26'66 8.1
2015-Mar-04 19:27N 52°10' E 003°29'8 5.9
2015-Mar-04 18:06N 52°02' E 003°24'4 6.5
2015-Mar-04 17:33N 51°59' E 003°24'8 7.4
2015-Mar-04 16:30N 51°51' E 003°21'8 8.5
2015-Mar-04 15:32N 51°44' E 003°17'9 8.9
2015-Mar-04 14:33N 51°36' E 003°23'10 9.9
2015-Mar-04 13:34N 51°27' E 003°31'8 7.8
2015-Mar-04 12:33N 51°24' E 003°42'7 6.9
2015-Mar-04 11:33N 51°21' E 003°53'7 6.9
2015-Mar-04 10:34N 51°26' E 004°01'6 6.1
2015-Mar-04 09:34N 51°23' E 004°09'7 6.8
2015-Mar-04 08:33N 51°18' E 004°17'2 2.3
2015-Mar-04 07:34N 51°17' E 004°20'1 0.8
2015-Mar-04 06:32N 51°17' E 004°20'0 0.0
2015-Mar-04 05:32N 51°17' E 004°20'0 0.0
2015-Mar-04 04:32N 51°17' E 004°20'0 0.0
2015-Mar-04 03:32N 51°17' E 004°20'0 0.0
2015-Mar-04 02:32N 51°17' E 004°20'0 0.0
2015-Mar-04 01:32N 51°17' E 004°20'0 0.0
2015-Mar-04 00:32N 51°17' E 004°20'0 0.0
2015-Mar-03 23:32N 51°17' E 004°20'0 0.0
2015-Mar-03 22:29N 51°17' E 004°20'0 0.0
2015-Mar-03 21:29N 51°17' E 004°20'0 0.0
2015-Mar-03 20:32N 51°17' E 004°20'0 0.0
2015-Mar-03 19:32N 51°17' E 004°20'0 0.0
2015-Mar-03 18:33N 51°17' E 004°20'1 0.8
2015-Mar-03 17:34N 51°17' E 004°20'1 0.9
2015-Mar-03 16:33N 51°17' E 004°19'3 3.3
2015-Mar-03 15:34N 51°20' E 004°16'7 6.7
2015-Mar-03 14:34N 51°22' E 004°06'6 6.5
2015-Mar-03 13:34N 51°22' E 003°56'10 9.7
2015-Mar-03 12:34N 51°25' E 003°41'4 3.5
2015-Mar-03 11:33N 51°25' E 003°35'1 0.8
2015-Mar-03 10:33N 51°25' E 003°36'10 9.5
2015-Mar-03 09:33N 51°24' E 003°21'1211.6
2015-Mar-03 08:34N 51°22' E 003°03'1110.5
2015-Mar-03 07:34N 51°22' E 002°46'10 9.7
2015-Mar-03 06:30N 51°22' E 002°30'9 9.2
2015-Mar-03 05:33N 51°17' E 002°18'9 9.4
2015-Mar-03 04:34N 51°13' E 002°05'1010.1
2015-Mar-03 03:34N 51°08' E 001°50'1010.2
2015-Mar-03 02:34N 51°01' E 001°39'1010.0
2015-Mar-03 01:34N 50°53' E 001°29'  
2015-Feb-28 08:13N 53°33' W 003°29'710.9
2015-Feb-28 07:34N 53°32' W 003°18'8 8.4
2015-Feb-28 06:34N 53°29' W 003°05'6 6.3
2015-Feb-28 05:34N 53°23' W 003°01'0 0.0
2015-Feb-28 04:31N 53°23' W 003°01'0 0.0
2015-Feb-28 03:31N 53°23' W 003°01'0 0.0
2015-Feb-28 02:31N 53°23' W 003°01'0 0.0
2015-Feb-28 01:31N 53°23' W 003°01'0 0.0
2015-Feb-28 00:31N 53°23' W 003°01'0 0.0
2015-Feb-27 23:31N 53°23' W 003°01'0 0.0
2015-Feb-27 22:13N 53°23' W 003°01'0 0.0
2015-Feb-27 21:31N 53°23' W 003°01'0 0.0
2015-Feb-27 20:31N 53°23' W 003°01'0 0.0
2015-Feb-27 19:25N 53°23' W 003°01'0 0.0
2015-Feb-27 18:31N 53°23' W 003°01'0 0.0
2015-Feb-27 17:31N 53°23' W 003°01'0 0.4
2015-Feb-27 16:30N 53°23' W 003°00'7 7.9
2015-Feb-27 15:33N 53°30' W 003°06'9 8.6
2015-Feb-27 14:33N 53°31' W 003°20'3 3.0
2015-Feb-27 13:25N 53°28' W 003°22'0 0.0
2015-Feb-27 12:25N 53°28' W 003°22'0 0.0
2015-Feb-27 11:25N 53°28' W 003°22'1 0.9
2015-Feb-27 10:34N 53°29' W 003°23'205 4.0
2015-Feb-25 07:04N 50°19' W 001°21'55 9.4
2015-Feb-25 01:11N 50°33' E 000°03'4 6.4
2015-Feb-25 00:33N 50°34' E 000°09'7 7.3
2015-Feb-24 23:33N 50°36' E 000°20'8 8.2
2015-Feb-24 22:33N 50°38' E 000°32'10 9.5
2015-Feb-24 21:33N 50°43' E 000°45'10 9.8
2015-Feb-24 20:33N 50°49' E 000°58'1110.4
2015-Feb-24 19:31N 50°56' E 001°11'8 8.7
2015-Feb-24 18:34N 51°01' E 001°21'8 7.8
2015-Feb-24 17:33N 51°06' E 001°31'7 6.5
2015-Feb-24 16:33N 51°11' E 001°39'6 6.0
2015-Feb-24 15:33N 51°15' E 001°45'8 7.8
2015-Feb-24 14:33N 51°22' E 001°51'1010.2
2015-Feb-24 13:33N 51°30' E 001°60'1111.3
2015-Feb-24 12:33N 51°39' E 002°12'1110.8
2015-Feb-24 11:33N 51°47' E 002°24'  

Dump ship's entire track history